Time;durP1;ratioP1;P1;durP2;ratioP2;P2;SDS_P1;SDS_P2;PMS_P1;PMS_P2;Temp;Humidity;BMP_temperature;BMP_pressure;BME280_temperature;BME280_humidity;BME280_pressure;Samples;Min_cycle;Max_cycle;Signal;HPM_P1;HPM_P2
2023/09/09 00:01:35;;;;;;;15.15;13.55;;;16.20;99.90;;;;;;4997387;28;20053;-85
2023/09/09 00:04:03;;;;;;;17.00;14.00;;;16.20;99.90;;;;;;4998065;28;20064;-85
2023/09/09 00:06:28;;;;;;;15.82;14.13;;;16.20;99.90;;;;;;4998613;28;20456;-84
2023/09/09 00:08:54;;;;;;;16.90;14.43;;;16.20;99.90;;;;;;4997449;28;20080;-84
2023/09/09 00:11:19;;;;;;;15.80;14.05;;;16.20;99.90;;;;;;5001567;28;20524;-87
2023/09/09 00:13:45;;;;;;;15.60;13.95;;;16.10;99.90;;;;;;5004004;28;20021;-84
2023/09/09 00:16:11;;;;;;;15.38;13.75;;;16.10;99.90;;;;;;4978984;28;20112;-85
2023/09/09 00:18:37;;;;;;;15.73;13.55;;;16.10;99.90;;;;;;4996497;28;20060;-85
2023/09/09 00:21:03;;;;;;;14.85;13.18;;;16.10;99.90;;;;;;4996113;28;20091;-85
2023/09/09 00:23:28;;;;;;;17.13;13.95;;;16.10;99.90;;;;;;4997574;28;20034;-85
2023/09/09 00:25:54;;;;;;;16.92;13.18;;;16.00;99.90;;;;;;4998050;28;20099;-85
2023/09/09 00:28:20;;;;;;;16.88;13.00;;;16.00;99.90;;;;;;4998215;28;20479;-85
2023/09/09 00:30:46;;;;;;;16.10;12.90;;;16.00;99.90;;;;;;4997838;28;20014;-86
2023/09/09 00:33:11;;;;;;;15.20;13.00;;;16.00;99.90;;;;;;4998541;28;20084;-86
2023/09/09 00:35:38;;;;;;;15.73;13.27;;;15.90;99.90;;;;;;5010812;28;20030;-85
2023/09/09 00:38:13;;;;;;;14.00;11.88;;;15.90;99.90;;;;;;5002909;28;20061;-86
2023/09/09 00:40:44;;;;;;;14.05;12.15;;;15.90;99.90;;;;;;4996149;28;20032;-85
2023/09/09 00:43:10;;;;;;;14.07;12.57;;;15.90;99.90;;;;;;4998401;28;20460;-84
2023/09/09 00:45:37;;;;;;;14.30;11.73;;;15.80;99.90;;;;;;4996524;28;20038;-85
2023/09/09 00:48:03;;;;;;;16.02;12.10;;;15.80;99.90;;;;;;4978267;28;20026;-85
2023/09/09 00:50:29;;;;;;;13.50;12.10;;;15.80;99.90;;;;;;4995165;28;21383;-85
2023/09/09 00:52:55;;;;;;;14.05;11.10;;;15.80;99.90;;;;;;4998540;28;20032;-84
2023/09/09 00:55:23;;;;;;;15.70;11.50;;;15.80;99.90;;;;;;4998496;28;20103;-85
2023/09/09 00:57:49;;;;;;;14.20;12.10;;;15.80;99.90;;;;;;5010308;28;20080;-85
2023/09/09 01:00:17;;;;;;;13.60;12.20;;;15.70;99.90;;;;;;5014970;28;20026;-84
2023/09/09 01:02:43;;;;;;;13.98;11.98;;;15.70;99.90;;;;;;4998125;28;20029;-84
2023/09/09 01:05:10;;;;;;;13.65;12.13;;;15.70;99.90;;;;;;5016318;28;20041;-86
2023/09/09 01:07:46;;;;;;;14.90;12.23;;;15.70;99.90;;;;;;4999609;28;20112;-85
2023/09/09 01:10:13;;;;;;;16.48;13.48;;;15.60;99.90;;;;;;4995775;28;20568;-85
2023/09/09 01:12:41;;;;;;;15.15;13.10;;;15.60;99.90;;;;;;4996345;28;20065;-86
2023/09/09 01:15:07;;;;;;;13.95;12.48;;;15.60;99.90;;;;;;4997431;28;20030;-85
2023/09/09 01:17:36;;;;;;;15.77;13.65;;;15.60;99.90;;;;;;5000446;28;20108;-85
2023/09/09 01:20:14;;;;;;;16.23;14.02;;;15.60;99.90;;;;;;4998319;28;20437;-85
2023/09/09 01:22:44;;;;;;;18.70;14.63;;;15.50;99.90;;;;;;4999675;28;20769;-86
2023/09/09 01:25:11;;;;;;;17.27;14.38;;;15.60;99.90;;;;;;4982652;28;20037;-86
2023/09/09 01:27:37;;;;;;;17.77;14.38;;;15.50;99.90;;;;;;5000574;28;20034;-85
2023/09/09 01:30:03;;;;;;;15.30;13.70;;;15.50;99.90;;;;;;4999226;28;20030;-85
2023/09/09 01:32:29;;;;;;;18.58;15.20;;;15.50;99.90;;;;;;4999444;28;20033;-86
2023/09/09 01:34:55;;;;;;;17.02;14.43;;;15.50;99.90;;;;;;5000743;28;20030;-85
2023/09/09 01:37:21;;;;;;;17.02;13.35;;;15.50;99.90;;;;;;5000026;28;20499;-85
2023/09/09 01:39:46;;;;;;;15.57;13.85;;;15.40;99.90;;;;;;4998386;28;20026;-85
2023/09/09 01:42:12;;;;;;;17.23;13.77;;;15.40;99.90;;;;;;4999709;28;20353;-85
2023/09/09 01:44:39;;;;;;;17.65;14.20;;;15.40;99.90;;;;;;4999235;28;20282;-85
2023/09/09 01:47:05;;;;;;;16.92;13.15;;;15.40;99.90;;;;;;4999516;28;20030;-85
2023/09/09 01:49:30;;;;;;;17.55;13.60;;;15.30;99.90;;;;;;4999394;28;20065;-86
2023/09/09 01:51:56;;;;;;;16.48;13.30;;;15.30;99.90;;;;;;5000258;28;20030;-85
2023/09/09 01:54:21;;;;;;;16.17;13.32;;;15.30;99.90;;;;;;4999417;28;20117;-85
2023/09/09 01:56:47;;;;;;;14.68;13.15;;;15.30;99.90;;;;;;4999346;28;20149;-85
2023/09/09 01:59:13;;;;;;;14.80;13.18;;;15.30;99.90;;;;;;4981436;28;20026;-85
2023/09/09 02:01:39;;;;;;;17.38;13.40;;;15.20;99.90;;;;;;5001313;28;20022;-85
2023/09/09 02:04:04;;;;;;;14.25;12.70;;;15.20;99.90;;;;;;4999628;28;21434;-85
2023/09/09 02:06:30;;;;;;;15.88;14.18;;;15.20;99.90;;;;;;4999108;28;20034;-85
2023/09/09 02:08:56;;;;;;;17.90;13.30;;;15.20;99.90;;;;;;4982085;28;20029;-84
2023/09/09 02:11:21;;;;;;;14.00;12.50;;;15.20;99.90;;;;;;4998661;28;20037;-85
2023/09/09 02:13:47;;;;;;;17.45;13.77;;;15.10;99.90;;;;;;5000822;28;20038;-85
2023/09/09 02:16:12;;;;;;;17.65;13.73;;;15.10;99.90;;;;;;4981514;28;20018;-84
2023/09/09 02:18:39;;;;;;;17.10;13.70;;;15.10;99.90;;;;;;5000667;28;20064;-85
2023/09/09 02:21:05;;;;;;;16.90;13.45;;;15.10;99.90;;;;;;5007410;28;20022;-85
2023/09/09 02:23:31;;;;;;;18.83;13.85;;;15.10;99.90;;;;;;5003193;28;20030;-85
2023/09/09 02:25:57;;;;;;;13.93;12.38;;;15.10;99.90;;;;;;5003538;28;20029;-85
2023/09/09 02:28:23;;;;;;;17.42;12.80;;;15.10;99.90;;;;;;5002346;28;20128;-85
2023/09/09 02:30:49;;;;;;;14.82;12.23;;;15.10;99.90;;;;;;5000691;28;20029;-85
2023/09/09 02:33:14;;;;;;;14.85;13.25;;;15.00;99.90;;;;;;5000486;28;20022;-84
2023/09/09 02:35:46;;;;;;;14.80;12.77;;;15.00;99.90;;;;;;5001077;28;20046;-84
2023/09/09 02:38:11;;;;;;;16.80;12.95;;;15.00;99.90;;;;;;5004890;28;20103;-85
2023/09/09 02:40:37;;;;;;;15.77;12.13;;;15.00;99.90;;;;;;4981100;28;20065;-85
2023/09/09 02:43:03;;;;;;;15.52;12.23;;;15.00;99.90;;;;;;4999041;28;20034;-85
2023/09/09 02:45:28;;;;;;;17.00;13.13;;;15.00;99.90;;;;;;4999592;28;20452;-85
2023/09/09 02:47:54;;;;;;;13.93;11.95;;;15.00;99.90;;;;;;4997367;28;20034;-85
2023/09/09 02:50:19;;;;;;;15.07;12.35;;;14.90;99.90;;;;;;4997546;28;20555;-85
2023/09/09 02:52:48;;;;;;;13.05;11.52;;;14.90;99.90;;;;;;4998245;28;20025;-84
2023/09/09 02:55:13;;;;;;;15.02;11.55;;;14.90;99.90;;;;;;4999613;28;20037;-84
2023/09/09 02:57:39;;;;;;;14.68;11.52;;;14.90;99.90;;;;;;4999312;28;20030;-84
2023/09/09 03:00:07;;;;;;;12.95;11.57;;;14.90;99.90;;;;;;4997852;28;20028;-84
2023/09/09 03:02:33;;;;;;;12.48;11.18;;;14.80;99.90;;;;;;4998790;28;20033;-85
2023/09/09 03:04:59;;;;;;;14.63;11.82;;;14.90;99.90;;;;;;4998033;28;20071;-84
2023/09/09 03:07:24;;;;;;;15.15;12.50;;;14.80;99.90;;;;;;4997881;28;20160;-85
2023/09/09 03:09:50;;;;;;;16.42;12.90;;;14.80;99.90;;;;;;4998178;28;20037;-84
2023/09/09 03:12:20;;;;;;;16.77;12.05;;;14.80;99.90;;;;;;4998236;28;20073;-85
2023/09/09 03:14:49;;;;;;;15.10;12.68;;;14.80;99.90;;;;;;4997258;28;20207;-85
2023/09/09 03:17:16;;;;;;;16.63;12.65;;;14.80;99.90;;;;;;4998325;28;20018;-84
2023/09/09 03:19:41;;;;;;;15.98;12.70;;;14.70;99.90;;;;;;4998001;28;20431;-85
2023/09/09 03:22:07;;;;;;;15.55;12.80;;;14.70;99.90;;;;;;4999136;28;20018;-85
2023/09/09 03:24:32;;;;;;;15.85;13.40;;;14.70;99.90;;;;;;4980743;28;20017;-84
2023/09/09 03:26:58;;;;;;;16.75;13.93;;;14.70;99.90;;;;;;5002487;28;20034;-87
2023/09/09 03:29:24;;;;;;;18.13;13.88;;;14.70;99.90;;;;;;5006384;28;20025;-87
2023/09/09 03:31:49;;;;;;;16.92;13.50;;;14.70;99.90;;;;;;5000176;28;20029;-84
2023/09/09 03:34:15;;;;;;;17.80;14.75;;;14.70;99.90;;;;;;4998015;28;20236;-84
2023/09/09 03:36:42;;;;;;;17.70;13.50;;;14.70;99.90;;;;;;4996316;28;20084;-85
2023/09/09 03:39:08;;;;;;;15.45;13.45;;;14.70;99.90;;;;;;5004910;28;20908;-84
2023/09/09 03:41:33;;;;;;;15.77;14.07;;;14.60;99.90;;;;;;4985959;28;20041;-84
2023/09/09 03:43:59;;;;;;;19.05;13.25;;;14.60;99.90;;;;;;5004274;28;20037;-85
2023/09/09 03:46:24;;;;;;;15.98;13.00;;;14.60;99.90;;;;;;4996573;28;20048;-85
2023/09/09 03:48:50;;;;;;;20.85;13.85;;;14.60;99.90;;;;;;4979682;28;20095;-85
2023/09/09 03:51:16;;;;;;;15.50;12.68;;;14.60;99.90;;;;;;4997165;28;20044;-86
2023/09/09 03:53:42;;;;;;;14.85;12.98;;;14.50;99.90;;;;;;4996728;28;20077;-84
2023/09/09 03:56:08;;;;;;;16.17;12.77;;;14.50;99.90;;;;;;4979389;28;20037;-84
2023/09/09 03:58:33;;;;;;;15.93;12.95;;;14.50;99.90;;;;;;4979308;28;20041;-87
2023/09/09 04:01:07;;;;;;;14.38;12.07;;;14.50;99.90;;;;;;4999687;28;20030;-86
2023/09/09 04:03:34;;;;;;;14.85;11.90;;;14.50;99.90;;;;;;5002925;28;20036;-84
2023/09/09 04:06:05;;;;;;;13.63;11.73;;;14.50;99.90;;;;;;4998233;28;20034;-85
2023/09/09 04:08:32;;;;;;;16.73;12.55;;;14.50;99.90;;;;;;4998419;28;20029;-83
2023/09/09 04:10:57;;;;;;;15.27;11.90;;;14.40;99.90;;;;;;4995868;28;20177;-84
2023/09/09 04:13:23;;;;;;;13.60;11.55;;;14.40;99.90;;;;;;4996401;28;20026;-84
2023/09/09 04:15:48;;;;;;;15.95;12.52;;;14.40;99.90;;;;;;4978747;28;20461;-84
2023/09/09 04:18:15;;;;;;;14.63;12.02;;;14.40;99.90;;;;;;4996658;28;20030;-84
2023/09/09 04:20:40;;;;;;;15.95;12.40;;;14.40;99.90;;;;;;4996941;28;20025;-85
2023/09/09 04:23:06;;;;;;;14.48;12.05;;;14.40;99.90;;;;;;4996234;28;20034;-84
2023/09/09 04:25:32;;;;;;;15.68;12.77;;;14.40;99.90;;;;;;4996992;28;20124;-84
2023/09/09 04:27:59;;;;;;;15.57;12.15;;;14.40;99.90;;;;;;4996380;28;20121;-84
2023/09/09 04:30:24;;;;;;;14.70;12.48;;;14.40;99.90;;;;;;4995952;28;20026;-85
2023/09/09 04:32:50;;;;;;;16.40;12.05;;;14.30;99.90;;;;;;4979277;28;20555;-84
2023/09/09 04:35:16;;;;;;;17.52;13.00;;;14.30;99.90;;;;;;4997356;28;20030;-84
2023/09/09 04:37:42;;;;;;;16.40;13.13;;;14.30;99.90;;;;;;4997348;28;20030;-84
2023/09/09 04:40:10;;;;;;;15.77;12.32;;;14.30;99.90;;;;;;4995649;28;20036;-84
2023/09/09 04:42:35;;;;;;;15.23;11.90;;;14.30;99.90;;;;;;4996804;28;20073;-85
2023/09/09 04:45:02;;;;;;;16.75;12.77;;;14.30;99.90;;;;;;4979097;28;20022;-84
2023/09/09 04:47:28;;;;;;;16.83;12.52;;;14.30;99.90;;;;;;4995315;28;20669;-84
2023/09/09 04:49:57;;;;;;;13.10;11.68;;;14.30;99.90;;;;;;4995819;28;20072;-84
2023/09/09 04:52:23;;;;;;;14.30;11.00;;;14.30;99.90;;;;;;5000587;28;20116;-85
2023/09/09 04:54:49;;;;;;;14.80;11.25;;;14.30;99.90;;;;;;5000303;28;20022;-84
2023/09/09 04:57:15;;;;;;;15.70;10.85;;;14.30;99.90;;;;;;5000323;28;20515;-84
2023/09/09 04:59:42;;;;;;;12.05;10.48;;;14.20;99.90;;;;;;4998563;28;20327;-85
2023/09/09 05:02:07;;;;;;;12.57;11.20;;;14.20;99.90;;;;;;5001257;28;20037;-86
2023/09/09 05:04:33;;;;;;;12.73;10.90;;;14.20;99.90;;;;;;4984877;28;20028;-85
2023/09/09 05:06:58;;;;;;;14.98;11.80;;;14.20;99.90;;;;;;5001223;28;20037;-84
2023/09/09 05:09:24;;;;;;;12.68;11.32;;;14.20;99.90;;;;;;5005672;28;20033;-83
2023/09/09 05:11:49;;;;;;;13.50;11.35;;;14.20;99.90;;;;;;5012534;28;20040;-85
2023/09/09 05:14:15;;;;;;;13.32;11.63;;;14.20;99.90;;;;;;5011888;28;20038;-84
2023/09/09 05:16:40;;;;;;;14.82;11.20;;;14.20;99.90;;;;;;5010899;28;20022;-85
2023/09/09 05:19:06;;;;;;;14.82;11.45;;;14.20;99.90;;;;;;5002678;28;20034;-84
2023/09/09 05:21:31;;;;;;;13.30;11.05;;;14.20;99.90;;;;;;4998860;28;20065;-84
2023/09/09 05:23:57;;;;;;;12.88;10.77;;;14.20;99.90;;;;;;4998602;28;20029;-86
2023/09/09 05:26:22;;;;;;;13.90;11.55;;;14.30;99.90;;;;;;4999509;28;20403;-85
2023/09/09 05:28:48;;;;;;;13.40;11.27;;;14.30;99.90;;;;;;4999850;28;20622;-84
2023/09/09 05:31:15;;;;;;;14.57;10.85;;;14.30;99.90;;;;;;4999736;28;20502;-84
2023/09/09 05:33:41;;;;;;;14.13;10.98;;;14.30;99.90;;;;;;4998881;28;20022;-84
2023/09/09 05:36:06;;;;;;;13.00;11.60;;;14.40;99.90;;;;;;4999180;28;20381;-84
2023/09/09 05:38:32;;;;;;;13.18;11.60;;;14.50;99.90;;;;;;5000986;28;20091;-83
2023/09/09 05:40:58;;;;;;;15.55;11.48;;;14.50;99.90;;;;;;4999715;28;20769;-85
2023/09/09 05:43:23;;;;;;;16.13;12.10;;;14.60;99.90;;;;;;5003064;28;20022;-85
2023/09/09 05:45:49;;;;;;;13.55;11.88;;;14.60;99.90;;;;;;5004533;28;20103;-84
2023/09/09 05:48:14;;;;;;;15.40;12.50;;;14.70;99.90;;;;;;4998221;28;20041;-85
2023/09/09 05:50:40;;;;;;;18.45;13.82;;;14.70;99.90;;;;;;4998305;28;20052;-85
2023/09/09 05:53:05;;;;;;;25.63;16.15;;;14.80;99.90;;;;;;5000397;28;20029;-84
2023/09/09 05:55:31;;;;;;;27.02;18.02;;;14.90;99.90;;;;;;4997297;28;20030;-84
2023/09/09 05:57:56;;;;;;;25.65;19.33;;;15.00;99.90;;;;;;4997853;28;20030;-85
2023/09/09 06:00:22;;;;;;;27.45;18.90;;;15.10;99.90;;;;;;4998094;28;20035;-84
2023/09/09 06:02:48;;;;;;;26.27;19.40;;;15.10;99.90;;;;;;4998081;28;20101;-85
2023/09/09 06:05:15;;;;;;;25.55;19.63;;;15.20;99.90;;;;;;4993809;28;20160;-84
2023/09/09 06:07:42;;;;;;;22.05;18.67;;;15.30;99.90;;;;;;4998293;28;20053;-84
2023/09/09 06:10:08;;;;;;;22.67;18.45;;;15.40;99.90;;;;;;4996401;28;20030;-84
2023/09/09 06:12:33;;;;;;;20.63;17.77;;;15.50;99.90;;;;;;4996849;28;20109;-85
2023/09/09 06:14:59;;;;;;;24.00;19.55;;;15.60;99.90;;;;;;4997674;28;20014;-85
2023/09/09 06:17:25;;;;;;;22.23;18.23;;;15.70;99.90;;;;;;4996157;28;20591;-85
2023/09/09 06:19:50;;;;;;;21.23;18.77;;;15.80;99.90;;;;;;4979215;28;20033;-85
2023/09/09 06:22:16;;;;;;;21.00;17.70;;;15.90;99.90;;;;;;4997750;28;20030;-84
2023/09/09 06:24:41;;;;;;;20.27;17.90;;;16.00;99.90;;;;;;4980274;28;21000;-84
2023/09/09 06:27:07;;;;;;;21.52;19.23;;;16.10;99.90;;;;;;4996247;28;20033;-85
2023/09/09 06:29:33;;;;;;;26.02;20.33;;;16.20;99.90;;;;;;4994246;28;20038;-84
2023/09/09 06:31:59;;;;;;;22.05;19.63;;;16.30;99.90;;;;;;4996287;28;20030;-85
2023/09/09 06:34:25;;;;;;;23.42;20.08;;;16.40;99.90;;;;;;5002047;28;20022;-84
2023/09/09 06:36:52;;;;;;;21.40;19.10;;;16.50;99.90;;;;;;5000179;28;20030;-85
2023/09/09 06:39:17;;;;;;;20.65;18.42;;;16.60;99.90;;;;;;4995168;28;21380;-85
2023/09/09 06:41:43;;;;;;;19.92;17.85;;;16.60;99.90;;;;;;4995398;28;20052;-85
2023/09/09 06:44:09;;;;;;;21.75;18.65;;;16.70;99.90;;;;;;5003069;28;20060;-87
2023/09/09 06:46:34;;;;;;;20.50;17.58;;;16.80;99.90;;;;;;4995983;28;20795;-85
2023/09/09 06:49:00;;;;;;;19.08;17.17;;;16.90;99.90;;;;;;4995731;28;20088;-85
2023/09/09 06:51:25;;;;;;;19.15;17.13;;;17.00;99.90;;;;;;4995812;28;20030;-85
2023/09/09 06:53:51;;;;;;;21.55;17.27;;;17.20;99.90;;;;;;4995003;28;20032;-85
2023/09/09 06:56:16;;;;;;;19.20;17.05;;;17.30;99.90;;;;;;4996368;28;20160;-85
2023/09/09 06:58:42;;;;;;;17.35;15.63;;;17.30;99.90;;;;;;4994201;28;20121;-85
2023/09/09 07:01:08;;;;;;;16.88;15.18;;;17.40;99.90;;;;;;4995699;28;20034;-86
2023/09/09 07:03:34;;;;;;;15.20;13.77;;;17.50;99.90;;;;;;4994012;28;20038;-85
2023/09/09 07:06:00;;;;;;;16.15;14.60;;;17.70;99.90;;;;;;4994143;28;20037;-85
2023/09/09 07:08:27;;;;;;;16.77;14.63;;;17.70;99.90;;;;;;4994587;28;20026;-86
2023/09/09 07:10:53;;;;;;;15.20;13.75;;;17.80;99.90;;;;;;4995681;28;20032;-86
2023/09/09 07:13:21;;;;;;;14.65;13.25;;;18.00;99.90;;;;;;4994442;28;20625;-84
2023/09/09 07:15:49;;;;;;;15.45;13.73;;;18.00;99.90;;;;;;4995199;28;20037;-86
2023/09/09 07:18:15;;;;;;;15.88;14.15;;;18.20;99.90;;;;;;4994737;28;20018;-85
2023/09/09 07:20:42;;;;;;;15.30;13.70;;;18.30;99.90;;;;;;4993162;28;20084;-85
2023/09/09 07:23:07;;;;;;;14.88;13.38;;;18.40;99.90;;;;;;4979733;28;20018;-85
2023/09/09 07:25:34;;;;;;;15.30;13.73;;;18.50;99.90;;;;;;4996256;28;20041;-86
2023/09/09 07:27:59;;;;;;;15.07;13.52;;;18.60;99.90;;;;;;5000013;28;20017;-85
2023/09/09 07:30:26;;;;;;;16.67;14.00;;;18.70;99.90;;;;;;5000853;28;20033;-85
2023/09/09 07:32:52;;;;;;;15.52;13.85;;;18.90;99.90;;;;;;4985197;28;20452;-85
2023/09/09 07:35:17;;;;;;;17.70;14.48;;;19.00;99.90;;;;;;4977277;28;20022;-86
2023/09/09 07:37:43;;;;;;;16.05;13.98;;;19.10;99.90;;;;;;4998354;28;20037;-86
2023/09/09 07:40:09;;;;;;;15.00;13.00;;;19.20;99.90;;;;;;4997379;28;20804;-87
2023/09/09 07:42:35;;;;;;;20.85;14.60;;;19.30;99.90;;;;;;4995814;28;20104;-86
2023/09/09 07:45:00;;;;;;;16.63;14.60;;;19.40;99.90;;;;;;4997085;28;20030;-86
2023/09/09 07:47:26;;;;;;;16.50;14.77;;;19.50;99.90;;;;;;4996809;28;20022;-86
2023/09/09 07:49:51;;;;;;;15.70;14.10;;;19.60;99.90;;;;;;4996788;28;20030;-86
2023/09/09 07:52:17;;;;;;;17.63;15.45;;;19.70;99.90;;;;;;4995329;28;20108;-85
2023/09/09 07:54:42;;;;;;;16.38;13.88;;;19.80;99.90;;;;;;4997800;28;20121;-86
2023/09/09 07:57:08;;;;;;;14.98;13.48;;;19.90;99.90;;;;;;4982553;28;20022;-86
2023/09/09 07:59:34;;;;;;;16.10;14.35;;;20.00;99.90;;;;;;4997510;28;20029;-87
2023/09/09 08:02:02;;;;;;;14.45;12.77;;;20.10;99.90;;;;;;4999714;28;20046;-86
2023/09/09 08:04:27;;;;;;;15.93;13.90;;;20.20;99.90;;;;;;5002603;28;20049;-86
2023/09/09 08:06:53;;;;;;;14.05;12.65;;;20.30;99.90;;;;;;5001399;28;20026;-86
2023/09/09 08:09:20;;;;;;;18.05;14.07;;;20.50;99.90;;;;;;4998382;28;20026;-87
2023/09/09 08:11:46;;;;;;;14.07;12.57;;;20.60;99.90;;;;;;5003760;28;20037;-86
2023/09/09 08:14:11;;;;;;;14.40;12.77;;;20.70;99.90;;;;;;5001866;28;20030;-86
2023/09/09 08:16:37;;;;;;;14.27;12.77;;;20.90;99.90;;;;;;5006992;28;20026;-86
2023/09/09 08:19:03;;;;;;;14.80;12.90;;;21.00;99.90;;;;;;5020193;28;20386;-86
2023/09/09 08:21:28;;;;;;;17.73;13.13;;;21.20;99.90;;;;;;5021963;28;20019;-84
2023/09/09 08:23:59;;;;;;;15.18;12.75;;;21.30;99.90;;;;;;5011233;28;20045;-86
2023/09/09 08:26:25;;;;;;;14.98;13.02;;;21.40;99.90;;;;;;4999256;28;20030;-86
2023/09/09 08:28:50;;;;;;;14.38;12.80;;;21.50;99.90;;;;;;5002719;28;20033;-86
2023/09/09 08:31:16;;;;;;;16.63;13.95;;;21.70;99.90;;;;;;4999144;28;20033;-86
2023/09/09 08:33:41;;;;;;;14.88;12.48;;;21.80;99.90;;;;;;4999954;28;20035;-86
2023/09/09 08:36:07;;;;;;;14.38;12.60;;;21.90;99.90;;;;;;4998725;28;20026;-86
2023/09/09 08:38:32;;;;;;;13.55;12.15;;;22.00;99.90;;;;;;5001108;28;20496;-86
2023/09/09 08:41:06;;;;;;;17.50;13.25;;;22.10;99.90;;;;;;4998158;28;20030;-86
2023/09/09 08:43:52;;;;;;;15.80;12.48;;;22.20;99.90;;;;;;4998920;28;20422;-86
2023/09/09 08:46:21;;;;;;;19.30;12.98;;;22.30;99.90;;;;;;5000709;28;20037;-86
2023/09/09 08:48:49;;;;;;;12.95;11.43;;;22.40;99.90;;;;;;5000985;28;20034;-86
2023/09/09 08:51:24;;;;;;;11.60;10.48;;;22.50;99.90;;;;;;5003453;28;20026;-86
2023/09/09 08:53:52;;;;;;;15.35;11.13;;;22.70;99.90;;;;;;5000462;28;20033;-87
2023/09/09 08:56:17;;;;;;;16.02;12.70;;;22.90;99.90;;;;;;4998901;28;20029;-87
2023/09/09 08:58:44;;;;;;;11.65;10.38;;;23.10;99.90;;;;;;4999175;28;20924;-86
2023/09/09 09:01:11;;;;;;;13.88;10.55;;;23.20;99.90;;;;;;5000551;28;20032;-86
2023/09/09 09:03:37;;;;;;;14.60;11.10;;;23.30;99.90;;;;;;5002614;28;20022;-86
2023/09/09 09:06:04;;;;;;;11.73;10.23;;;23.40;99.90;;;;;;5000794;28;20419;-87
2023/09/09 09:08:31;;;;;;;14.55;10.30;;;23.60;99.90;;;;;;5000666;28;20046;-87
2023/09/09 09:10:58;;;;;;;14.02;9.95;;;23.90;99.90;;;;;;5000637;28;20033;-87
2023/09/09 09:13:24;;;;;;;12.98;11.35;;;24.10;99.90;;;;;;5001516;28;20025;-86
2023/09/09 09:15:50;;;;;;;12.32;10.85;;;24.40;99.90;;;;;;4982681;28;20380;-86
2023/09/09 09:18:15;;;;;;;16.05;11.38;;;24.50;99.90;;;;;;4999787;28;20384;-86
2023/09/09 09:20:42;;;;;;;11.85;9.20;;;24.60;99.90;;;;;;4998550;28;20404;-87
2023/09/09 09:23:14;;;;;;;10.07;8.93;;;24.70;99.90;;;;;;5001033;28;20026;-86
2023/09/09 09:25:45;;;;;;;14.23;9.32;;;24.90;99.90;;;;;;4999288;28;20075;-87
2023/09/09 09:28:15;;;;;;;14.25;9.95;;;25.20;99.90;;;;;;4999809;28;20033;-87
2023/09/09 09:30:42;;;;;;;13.52;9.73;;;25.30;99.90;;;;;;4998993;28;20034;-87
2023/09/09 09:33:07;;;;;;;12.25;9.32;;;25.50;99.90;;;;;;5000016;28;20373;-87
2023/09/09 09:35:36;;;;;;;10.77;8.98;;;25.70;99.90;;;;;;5000021;28;20033;-87
2023/09/09 09:38:09;;;;;;;11.48;9.77;;;25.80;99.90;;;;;;5001663;28;21108;-87
2023/09/09 09:40:35;;;;;;;11.90;10.70;;;25.90;99.90;;;;;;4983134;28;20120;-86
2023/09/09 09:43:01;;;;;;;13.55;10.13;;;25.90;99.90;;;;;;4981198;28;20100;-87
2023/09/09 09:45:28;;;;;;;11.18;10.05;;;26.10;99.90;;;;;;4998573;28;20117;-87
2023/09/09 09:47:55;;;;;;;10.50;9.43;;;26.20;99.90;;;;;;5000995;28;20040;-86
2023/09/09 09:50:28;;;;;;;11.27;10.15;;;26.40;99.90;;;;;;4997919;28;20026;-85
2023/09/09 09:53:08;;;;;;;12.27;10.18;;;26.60;99.90;;;;;;4997719;28;20027;-87
2023/09/09 09:55:35;;;;;;;10.48;8.32;;;26.60;99.90;;;;;;4999697;28;20034;-87
2023/09/09 09:58:06;;;;;;;11.48;8.77;;;26.70;99.90;;;;;;5002274;28;20080;-86
2023/09/09 10:00:32;;;;;;;9.57;8.57;;;26.90;99.90;;;;;;5001679;28;20036;-88
2023/09/09 10:03:00;;;;;;;10.27;9.20;;;27.10;99.90;;;;;;5000556;28;20038;-87
2023/09/09 10:05:27;;;;;;;10.45;9.07;;;27.30;99.90;;;;;;4999067;28;20021;-87
2023/09/09 10:08:11;;;;;;;10.93;9.02;;;27.30;99.90;;;;;;4999085;28;20026;-87
2023/09/09 10:10:38;;;;;;;13.55;9.57;;;27.50;99.90;;;;;;4999204;28;20057;-87
2023/09/09 10:13:21;;;;;;;10.93;9.45;;;27.50;99.90;;;;;;4999112;28;20026;-87
2023/09/09 10:15:48;;;;;;;10.60;8.65;;;27.40;99.90;;;;;;4999717;28;20034;-87
2023/09/09 10:18:16;;;;;;;10.60;7.63;;;27.30;99.90;;;;;;5002228;28;20033;-87
2023/09/09 10:20:42;;;;;;;9.43;7.78;;;27.50;99.90;;;;;;4998640;28;21124;-86
2023/09/09 10:23:08;;;;;;;12.38;8.57;;;27.70;99.90;;;;;;5002109;28;20034;-87
2023/09/09 10:25:35;;;;;;;9.20;8.25;;;27.80;99.90;;;;;;4996505;28;20052;-87
2023/09/09 10:28:04;;;;;;;9.48;8.48;;;28.00;99.90;;;;;;4981737;28;20032;-87
2023/09/09 10:30:31;;;;;;;9.82;7.43;;;28.00;99.90;;;;;;5000132;28;20030;-87
2023/09/09 10:33:00;;;;;;;8.50;7.60;;;28.30;99.90;;;;;;5001503;28;20034;-87
2023/09/09 10:35:28;;;;;;;9.95;7.10;;;28.40;99.90;;;;;;5001504;28;20121;-87
2023/09/09 10:37:56;;;;;;;10.00;7.53;;;28.50;99.90;;;;;;5000626;28;20076;-88
2023/09/09 10:40:22;;;;;;;9.90;6.70;;;28.60;99.90;;;;;;4996965;28;20025;-88
2023/09/09 10:42:48;;;;;;;7.63;6.93;;;28.60;99.90;;;;;;5000545;28;20048;-87
2023/09/09 10:45:23;;;;;;;7.60;6.72;;;28.50;99.90;;;;;;4999078;28;20045;-86
2023/09/09 10:48:10;;;;;;;10.25;7.32;;;28.50;99.90;;;;;;5000926;28;20053;-87
2023/09/09 10:50:51;;;;;;;10.40;7.70;;;28.50;99.90;;;;;;5000782;28;20053;-87
2023/09/09 10:53:23;;;;;;;8.98;7.18;;;28.60;99.90;;;;;;4999366;28;20034;-88
2023/09/09 10:55:58;;;;;;;11.73;7.07;;;28.80;99.90;;;;;;4999545;28;20026;-87
2023/09/09 10:58:35;;;;;;;10.60;7.25;;;28.90;99.90;;;;;;5002237;28;21428;-87
2023/09/09 11:01:01;;;;;;;7.28;6.55;;;28.90;99.90;;;;;;4986295;28;20179;-86
2023/09/09 11:03:46;;;;;;;7.53;6.47;;;29.00;99.90;;;;;;5005572;28;20030;-86
2023/09/09 11:06:27;;;;;;;10.07;6.55;;;29.20;99.90;;;;;;4991276;28;20022;-88
2023/09/09 11:08:55;;;;;;;13.48;6.50;;;29.30;99.90;;;;;;5023468;28;20026;-87
2023/09/09 11:11:26;;;;;;;8.95;6.07;;;29.30;99.90;;;;;;5026062;28;20011;-86
2023/09/09 11:13:55;;;;;;;8.52;6.70;;;29.30;99.90;;;;;;5016048;28;20041;-87
2023/09/09 11:16:24;;;;;;;7.50;5.68;;;29.30;99.90;;;;;;5002677;28;20139;-89
2023/09/09 11:18:52;;;;;;;9.30;6.13;;;29.30;99.90;;;;;;5002626;28;20038;-88
2023/09/09 11:21:21;;;;;;;9.20;5.97;;;29.50;99.90;;;;;;4986512;28;20609;-87
2023/09/09 11:23:47;;;;;;;8.63;5.95;;;29.60;99.90;;;;;;5001683;28;20033;-86
2023/09/09 11:26:15;;;;;;;8.48;5.80;;;29.60;99.90;;;;;;4997959;28;20132;-87
2023/09/09 11:28:44;;;;;;;5.82;4.90;;;29.60;99.90;;;;;;4996191;28;20030;-87
2023/09/09 11:31:17;;;;;;;8.38;5.72;;;29.80;99.90;;;;;;4997796;28;20543;-86
2023/09/09 11:33:43;;;;;;;7.00;5.93;;;29.90;99.90;;;;;;4998404;28;20022;-87
2023/09/09 11:36:09;;;;;;;7.30;5.30;;;30.10;99.90;;;;;;4998022;28;20068;-88
2023/09/09 11:38:39;;;;;;;11.32;5.35;;;30.20;99.90;;;;;;4999951;28;20054;-87
2023/09/09 11:41:05;;;;;;;10.20;5.93;;;30.10;99.90;;;;;;4999956;28;20041;-87
2023/09/09 11:43:31;;;;;;;6.50;4.85;;;30.10;99.90;;;;;;4998809;28;20532;-86
2023/09/09 11:45:56;;;;;;;6.75;5.70;;;30.20;99.90;;;;;;4998095;28;20126;-88
2023/09/09 11:48:26;;;;;;;7.00;5.28;;;30.30;99.90;;;;;;5002538;28;20105;-88
2023/09/09 11:50:52;;;;;;;9.90;6.00;;;30.50;99.90;;;;;;5005855;28;20037;-87
2023/09/09 11:53:22;;;;;;;6.05;5.45;;;30.30;99.90;;;;;;5000705;28;20395;-87
2023/09/09 11:55:53;;;;;;;7.22;5.57;;;30.40;99.90;;;;;;4997499;28;20027;-87
2023/09/09 11:58:18;;;;;;;8.40;5.70;;;30.40;99.90;;;;;;4998109;28;20048;-88
2023/09/09 12:00:44;;;;;;;6.53;5.28;;;30.60;99.90;;;;;;4996863;28;20315;-87
2023/09/09 12:03:18;;;;;;;7.95;5.95;;;30.60;99.90;;;;;;4996459;28;20037;-87
2023/09/09 12:05:44;;;;;;;6.38;4.97;;;30.60;99.90;;;;;;4996097;28;20034;-87
2023/09/09 12:08:09;;;;;;;7.82;5.13;;;30.60;99.90;;;;;;4995494;28;20049;-87
2023/09/09 12:10:38;;;;;;;8.02;6.10;;;30.70;99.90;;;;;;4994321;28;20030;-87
2023/09/09 12:13:06;;;;;;;8.00;5.20;;;30.70;99.90;;;;;;4994152;28;20046;-86
2023/09/09 12:15:32;;;;;;;7.53;5.07;;;30.60;99.90;;;;;;4997271;28;20037;-88
2023/09/09 12:17:57;;;;;;;7.22;5.57;;;30.50;99.90;;;;;;4997250;28;20089;-88
2023/09/09 12:20:23;;;;;;;6.55;4.90;;;30.50;99.90;;;;;;4995969;28;20931;-88
2023/09/09 12:22:51;;;;;;;6.47;4.85;;;30.60;99.90;;;;;;4997678;28;20030;-88
2023/09/09 12:25:32;;;;;;;6.63;5.53;;;30.60;99.90;;;;;;4997917;28;20088;-88
2023/09/09 12:27:59;;;;;;;6.45;4.60;;;30.60;99.90;;;;;;4997814;28;20049;-87
2023/09/09 12:30:37;;;;;;;9.63;5.13;;;30.70;99.90;;;;;;4996477;28;20033;-87